Time;durP1;ratioP1;P1;durP2;ratioP2;P2;SDS_P1;SDS_P2;PMS_P1;PMS_P2;Temp;Humidity;BMP_temperature;BMP_pressure;BME280_temperature;BME280_humidity;BME280_pressure;Samples;Min_cycle;Max_cycle;Signal;HPM_P1;HPM_P2
2022/12/15 00:38:59;;;;;;;37.47;21.77;;;-2.30;1.00;;;;;;4981247;28;20485;-58
2022/12/15 00:41:24;;;;;;;36.93;22.70;;;-2.40;1.00;;;;;;4973999;28;20553;-59
2022/12/15 00:43:50;;;;;;;39.30;23.23;;;-2.40;1.00;;;;;;4974822;28;20202;-58
2022/12/15 00:49:00;;;;;;;38.10;23.40;;;-2.40;1.00;;;;;;4971213;28;20391;-59
2022/12/15 01:21:40;;;;;;;36.50;23.00;;;-2.50;1.00;;;;;;4984340;28;20591;-59
2022/12/15 01:24:06;;;;;;;37.03;21.67;;;-2.40;1.00;;;;;;4986185;28;20554;-59
2022/12/15 01:26:32;;;;;;;39.97;23.90;;;-2.50;1.00;;;;;;4978056;28;20222;-59
2022/12/15 01:28:58;;;;;;;41.03;23.90;;;-2.50;1.00;;;;;;4975331;28;20842;-58
2022/12/15 01:31:24;;;;;;;41.07;23.53;;;-2.40;1.00;;;;;;4976734;28;20716;-58
2022/12/15 01:33:54;;;;;;;40.83;22.60;;;-2.30;1.00;;;;;;4981394;28;20457;-58
2022/12/15 01:36:19;;;;;;;39.17;22.70;;;-2.40;1.00;;;;;;4980173;28;20293;-58
2022/12/15 01:38:45;;;;;;;43.43;24.10;;;-2.30;1.00;;;;;;4986205;28;20927;-57
2022/12/15 01:41:11;;;;;;;43.40;25.10;;;-2.20;1.00;;;;;;4977215;28;20200;-58
2022/12/15 01:43:39;;;;;;;38.83;23.77;;;-2.20;1.00;;;;;;4982725;28;20204;-58
2022/12/15 01:46:17;;;;;;;41.13;23.47;;;-2.00;1.00;;;;;;4983882;28;20442;-57
2022/12/15 01:49:19;;;;;;;41.63;25.13;;;-1.90;1.00;;;;;;4989491;28;20478;-59
2022/12/15 01:51:52;;;;;;;39.43;22.50;;;-1.70;1.00;;;;;;4979059;28;21110;-58
2022/12/15 01:54:31;;;;;;;37.47;22.97;;;-1.60;1.00;;;;;;4988044;28;20448;-58
2022/12/15 01:57:03;;;;;;;35.70;22.30;;;-1.50;1.00;;;;;;4990173;28;20438;-59
2022/12/15 01:59:34;;;;;;;32.43;19.63;;;-1.50;1.00;;;;;;4990434;28;21107;-58
2022/12/15 02:02:01;;;;;;;40.23;22.87;;;-1.30;1.00;;;;;;4982639;28;20592;-59
2022/12/15 02:04:27;;;;;;;40.00;23.73;;;-1.30;1.00;;;;;;4980905;28;20551;-59
2022/12/15 02:06:53;;;;;;;37.07;23.50;;;-1.30;1.00;;;;;;4987841;28;20981;-59
2022/12/15 02:09:19;;;;;;;35.47;22.47;;;-1.20;1.00;;;;;;4985686;28;20461;-59
2022/12/15 02:11:57;;;;;;;39.53;23.33;;;-1.20;1.00;;;;;;4980159;28;20572;-58
2022/12/15 02:14:45;;;;;;;40.00;24.90;;;-1.10;1.00;;;;;;4990214;28;22392;-58
2022/12/15 02:17:24;;;;;;;34.50;22.10;;;-1.00;1.00;;;;;;4985471;28;20452;-59
2022/12/15 02:20:16;;;;;;;37.90;25.83;;;-0.90;1.00;;;;;;4984174;28;20449;-59
2022/12/15 02:22:50;;;;;;;38.77;24.03;;;-0.80;1.00;;;;;;4985860;28;20450;-59
2022/12/15 02:25:43;;;;;;;41.90;23.30;;;-0.80;1.00;;;;;;4991056;28;20505;-60
2022/12/15 02:28:34;;;;;;;38.37;23.37;;;-0.80;1.00;;;;;;4985320;28;20456;-60
2022/12/15 02:33:58;;;;;;;45.67;23.13;;;-0.90;1.00;;;;;;4979121;28;20812;-60
2022/12/15 02:36:34;;;;;;;35.10;23.90;;;-1.00;1.00;;;;;;4985444;28;20460;-59
2022/12/15 02:39:00;;;;;;;41.13;22.77;;;-1.10;1.00;;;;;;4983961;28;20505;-58
2022/12/15 02:41:35;;;;;;;37.57;22.60;;;-1.10;1.00;;;;;;4978705;28;20566;-59
2022/12/15 02:44:07;;;;;;;38.23;21.67;;;-1.10;1.00;;;;;;4975562;28;20927;-57
2022/12/15 02:47:01;;;;;;;38.63;23.10;;;-1.30;1.00;;;;;;4974800;28;20521;-59
2022/12/15 02:50:03;;;;;;;40.00;22.00;;;-1.30;1.00;;;;;;4972467;28;20463;-60
2022/12/15 02:52:37;;;;;;;41.40;23.37;;;-1.40;1.00;;;;;;4952267;28;21061;-59
2022/12/15 02:55:23;;;;;;;42.57;24.00;;;-1.40;1.00;;;;;;4978342;28;22197;-58
2022/12/15 02:57:54;;;;;;;39.57;21.53;;;-1.50;1.00;;;;;;4972512;28;20558;-58
2022/12/15 03:00:21;;;;;;;37.93;23.10;;;-1.50;1.00;;;;;;4975328;28;20470;-59
2022/12/15 03:02:50;;;;;;;40.57;22.33;;;-1.60;1.00;;;;;;4976576;28;21316;-59
2022/12/15 03:05:18;;;;;;;36.37;22.80;;;-1.60;1.00;;;;;;4975609;28;20505;-59
2022/12/15 03:07:44;;;;;;;40.13;22.13;;;-1.50;1.00;;;;;;4974012;28;20505;-59
2022/12/15 03:10:12;;;;;;;37.57;21.50;;;-1.50;1.00;;;;;;4981607;28;20478;-58
2022/12/15 03:12:38;;;;;;;37.30;23.60;;;-1.60;1.00;;;;;;4987047;28;20222;-59
2022/12/15 03:15:04;;;;;;;36.90;23.03;;;-1.60;1.00;;;;;;4988183;28;20542;-58
2022/12/15 03:17:29;;;;;;;36.27;22.50;;;-1.60;1.00;;;;;;4989841;28;20280;-59
2022/12/15 03:19:55;;;;;;;39.17;23.20;;;-1.60;1.00;;;;;;4987363;28;20543;-59
2022/12/15 03:22:21;;;;;;;42.63;23.73;;;-1.60;1.00;;;;;;4989524;28;20587;-58
2022/12/15 03:24:47;;;;;;;37.90;22.87;;;-1.50;1.00;;;;;;4985556;28;20211;-58
2022/12/15 03:27:13;;;;;;;37.97;20.23;;;-1.50;1.00;;;;;;4988938;28;20192;-58
2022/12/15 03:29:38;;;;;;;38.93;23.33;;;-2.20;1.00;;;;;;4973162;28;22274;-59
2022/12/15 03:32:04;;;;;;;39.33;23.00;;;-1.60;1.00;;;;;;4986176;28;20262;-59
2022/12/15 03:34:30;;;;;;;38.80;21.50;;;-1.60;1.00;;;;;;4982733;28;20190;-59
2022/12/15 03:36:55;;;;;;;37.03;23.37;;;-1.60;1.00;;;;;;4987368;28;20275;-58
2022/12/15 03:39:21;;;;;;;42.60;22.10;;;-1.20;1.00;;;;;;4983742;28;20203;-57
2022/12/15 03:41:47;;;;;;;33.83;22.00;;;-1.60;1.00;;;;;;4976713;28;20202;-58
2022/12/15 03:44:12;;;;;;;40.53;23.23;;;-1.60;1.00;;;;;;4987759;28;20191;-58
2022/12/15 03:46:38;;;;;;;41.83;22.57;;;-1.60;1.00;;;;;;4983673;28;20195;-59
2022/12/15 03:49:04;;;;;;;36.30;20.77;;;-1.60;1.00;;;;;;4989500;28;20243;-59
2022/12/15 03:51:29;;;;;;;39.30;21.50;;;-1.70;1.00;;;;;;4985637;28;20334;-58
2022/12/15 03:53:55;;;;;;;34.70;19.10;;;-1.70;1.00;;;;;;4988222;28;20230;-58
2022/12/15 03:56:20;;;;;;;35.97;21.60;;;-1.70;1.00;;;;;;4986259;28;20189;-59
2022/12/15 03:58:46;;;;;;;34.80;20.17;;;-1.80;1.00;;;;;;4982666;28;20311;-59
2022/12/15 04:01:24;;;;;;;35.20;20.07;;;-1.80;1.00;;;;;;4989150;28;20190;-58
2022/12/15 04:03:50;;;;;;;34.67;19.57;;;-1.90;1.00;;;;;;4984097;28;20197;-58
2022/12/15 04:06:15;;;;;;;39.40;22.30;;;-1.80;1.00;;;;;;4992176;28;20455;-57
2022/12/15 04:08:41;;;;;;;33.80;20.37;;;-1.80;1.00;;;;;;4981676;28;20570;-58
2022/12/15 04:11:06;;;;;;;42.13;23.17;;;-1.80;1.00;;;;;;4988006;28;20246;-59
2022/12/15 04:13:32;;;;;;;33.47;19.60;;;-1.80;1.00;;;;;;4980945;28;20200;-58
2022/12/15 04:16:01;;;;;;;42.37;22.53;;;-1.90;1.00;;;;;;4974458;28;20305;-58
2022/12/15 04:18:27;;;;;;;43.00;22.80;;;-1.90;1.00;;;;;;4983554;28;20219;-58
2022/12/15 04:20:53;;;;;;;37.83;21.60;;;-1.90;1.00;;;;;;4982235;28;20495;-58
2022/12/15 04:23:18;;;;;;;38.17;22.63;;;-1.90;1.00;;;;;;4985077;28;20200;-57
2022/12/15 05:31:57;;;;;;;32.80;20.00;;;-2.50;1.00;;;;;;4986840;28;20473;-58
2022/12/15 05:34:25;;;;;;;33.40;20.67;;;-2.60;1.00;;;;;;4988809;28;20546;-57
2022/12/15 05:36:51;;;;;;;37.67;22.20;;;-2.60;1.00;;;;;;4985908;28;20204;-58
2022/12/15 05:39:17;;;;;;;35.03;20.23;;;-2.60;1.00;;;;;;4983384;28;20453;-57
2022/12/15 05:41:42;;;;;;;48.60;25.40;;;-2.70;1.00;;;;;;4984171;28;20968;-58
2022/12/15 05:44:08;;;;;;;33.50;21.50;;;-2.70;1.00;;;;;;4987745;28;20629;-59
2022/12/15 05:46:34;;;;;;;34.47;20.70;;;-2.70;1.00;;;;;;4986916;28;20646;-58
2022/12/15 05:49:03;;;;;;;35.80;19.47;;;-2.70;1.00;;;;;;4982830;28;20553;-57
2022/12/15 05:51:29;;;;;;;33.17;19.43;;;-2.80;1.00;;;;;;4984886;28;20219;-58
2022/12/15 05:53:54;;;;;;;41.50;21.23;;;-2.80;1.00;;;;;;4987000;28;20562;-59
2022/12/15 05:56:20;;;;;;;39.80;22.07;;;-2.90;1.00;;;;;;4988605;28;20196;-57
2022/12/15 05:58:46;;;;;;;41.67;23.20;;;-2.80;1.00;;;;;;4981587;28;20195;-58
2022/12/15 06:01:14;;;;;;;39.77;20.43;;;-3.00;1.00;;;;;;4986762;28;20288;-59
2022/12/15 06:03:41;;;;;;;41.93;24.13;;;-2.90;1.00;;;;;;4983495;28;20546;-58
2022/12/15 06:06:08;;;;;;;33.30;20.53;;;-3.00;1.00;;;;;;4983326;28;20510;-58
2022/12/15 06:08:36;;;;;;;32.43;19.97;;;-3.00;1.00;;;;;;4993261;28;20497;-58
2022/12/15 06:11:02;;;;;;;34.27;18.73;;;-3.00;1.00;;;;;;4989456;28;20508;-58
2022/12/15 06:13:31;;;;;;;37.10;18.60;;;-3.00;1.00;;;;;;4991714;28;20556;-58
2022/12/15 06:16:02;;;;;;;41.90;21.40;;;-3.10;1.00;;;;;;4989324;28;20286;-58
2022/12/15 06:18:30;;;;;;;34.77;17.77;;;-3.10;1.00;;;;;;4987135;28;20640;-58
2022/12/15 06:21:04;;;;;;;36.33;18.10;;;-1.50;1.00;;;;;;4989423;28;20866;-59
2022/12/15 06:23:31;;;;;;;31.10;18.67;;;-3.10;1.00;;;;;;4984431;28;20904;-58
2022/12/15 06:25:58;;;;;;;31.17;16.90;;;-3.10;1.00;;;;;;4989142;28;20451;-57
2022/12/15 06:28:24;;;;;;;30.20;19.20;;;-3.10;1.00;;;;;;4985497;28;20457;-58
2022/12/15 06:30:52;;;;;;;36.03;19.30;;;-3.10;1.00;;;;;;4987307;28;20489;-58
2022/12/15 06:33:20;;;;;;;31.97;18.10;;;-3.00;1.00;;;;;;4987271;28;20442;-59
2022/12/15 06:35:46;;;;;;;33.63;18.37;;;-2.90;1.00;;;;;;4991656;28;20470;-59
2022/12/15 06:38:11;;;;;;;33.97;20.70;;;-2.90;1.00;;;;;;4992732;28;20924;-59
2022/12/15 06:40:38;;;;;;;33.40;19.10;;;-2.90;1.00;;;;;;4989208;28;20535;-58
2022/12/15 06:43:04;;;;;;;34.17;19.03;;;-2.90;1.00;;;;;;4992218;28;20650;-58
2022/12/15 06:45:29;;;;;;;31.50;18.07;;;-3.00;1.00;;;;;;4989805;28;20477;-59
2022/12/15 06:47:55;;;;;;;34.10;20.07;;;-3.10;1.00;;;;;;5006015;28;20459;-59
2022/12/15 06:50:20;;;;;;;37.67;21.83;;;-3.10;1.00;;;;;;4992692;28;20243;-59
2022/12/15 06:52:46;;;;;;;30.27;18.50;;;-3.10;1.00;;;;;;4992545;28;20207;-57
2022/12/15 06:55:13;;;;;;;36.00;20.80;;;-3.10;1.00;;;;;;4989973;28;20666;-58
2022/12/15 06:57:38;;;;;;;42.93;21.53;;;-3.10;1.00;;;;;;4991472;28;20486;-58
2022/12/15 07:00:05;;;;;;;30.70;18.93;;;-3.10;1.00;;;;;;4991477;28;20195;-58
2022/12/15 07:02:31;;;;;;;35.20;17.77;;;-3.20;1.00;;;;;;4992386;28;20277;-58
2022/12/15 07:04:57;;;;;;;32.37;16.90;;;-3.20;1.00;;;;;;4990180;28;20800;-59
2022/12/15 07:07:24;;;;;;;32.00;18.90;;;-3.20;1.00;;;;;;4992524;28;20634;-60
2022/12/15 07:09:50;;;;;;;32.07;19.20;;;-3.10;1.00;;;;;;4990664;28;21066;-59
2022/12/15 07:12:15;;;;;;;28.03;17.40;;;-3.10;1.00;;;;;;4991163;28;20476;-59
2022/12/15 07:14:41;;;;;;;33.60;18.90;;;-3.10;1.00;;;;;;4989351;28;20459;-58
2022/12/15 07:17:09;;;;;;;34.43;18.27;;;-3.10;1.00;;;;;;4989420;28;20705;-59
2022/12/15 07:19:35;;;;;;;37.53;20.27;;;-3.10;1.00;;;;;;4987904;28;20251;-59
2022/12/15 07:22:01;;;;;;;36.40;21.10;;;-3.10;1.00;;;;;;4990104;28;20479;-59
2022/12/15 07:24:26;;;;;;;31.80;19.27;;;-3.10;1.00;;;;;;4973081;28;20566;-59
2022/12/15 07:26:52;;;;;;;34.10;20.40;;;-3.10;1.00;;;;;;4998021;28;20544;-59
2022/12/15 07:29:18;;;;;;;36.30;20.73;;;-3.10;1.00;;;;;;4991856;28;20219;-59
2022/12/15 07:31:44;;;;;;;33.47;17.83;;;-3.20;1.00;;;;;;4989342;28;20638;-59
2022/12/15 07:34:10;;;;;;;30.77;17.20;;;-3.20;1.00;;;;;;4995484;28;20220;-58
2022/12/15 07:36:37;;;;;;;38.33;21.40;;;-3.10;1.00;;;;;;4989914;28;20504;-60
2022/12/15 07:39:03;;;;;;;41.47;20.43;;;-3.20;1.00;;;;;;4988681;28;20551;-58
2022/12/15 07:41:29;;;;;;;44.33;20.57;;;-3.10;1.00;;;;;;4990031;28;20443;-59
2022/12/15 07:43:56;;;;;;;37.83;19.23;;;-3.10;1.00;;;;;;4991740;28;20468;-58
2022/12/15 07:46:22;;;;;;;27.90;18.17;;;-3.10;1.00;;;;;;4989870;28;20482;-59
2022/12/15 07:48:48;;;;;;;33.47;19.00;;;-3.00;1.00;;;;;;4989270;28;20476;-58
2022/12/15 07:51:14;;;;;;;26.37;17.27;;;-3.00;1.00;;;;;;4991653;28;20566;-58
2022/12/15 07:53:40;;;;;;;27.87;16.93;;;-3.00;1.00;;;;;;4991797;28;20729;-59
2022/12/15 07:56:06;;;;;;;30.07;16.17;;;-3.00;1.00;;;;;;4991686;28;20444;-58
2022/12/15 07:58:32;;;;;;;26.70;16.47;;;-3.10;1.00;;;;;;4990132;28;20202;-58
2022/12/15 08:00:59;;;;;;;23.13;14.60;;;-3.10;1.00;;;;;;4987193;28;20487;-58
2022/12/15 08:03:25;;;;;;;31.63;16.07;;;-3.10;1.00;;;;;;4994316;28;20270;-59
2022/12/15 08:05:51;;;;;;;29.10;17.33;;;-3.10;1.00;;;;;;4991528;28;20538;-57
2022/12/15 08:08:17;;;;;;;25.13;15.80;;;-3.00;1.00;;;;;;4994809;28;20207;-59
2022/12/15 08:10:43;;;;;;;24.13;16.10;;;-3.10;1.00;;;;;;4991270;28;20664;-58
2022/12/15 08:13:09;;;;;;;25.30;14.80;;;-3.00;1.00;;;;;;4991414;28;20786;-59
2022/12/15 08:15:36;;;;;;;26.10;15.00;;;-3.00;1.00;;;;;;4990350;28;20431;-59
2022/12/15 08:18:03;;;;;;;24.10;16.10;;;-3.10;1.00;;;;;;4991174;28;20536;-59
2022/12/15 08:20:29;;;;;;;26.73;16.67;;;-3.10;1.00;;;;;;4990956;28;20450;-59
2022/12/15 08:22:55;;;;;;;24.63;13.70;;;-3.00;1.00;;;;;;4991367;28;20448;-59
2022/12/15 08:25:21;;;;;;;30.33;14.70;;;-3.00;1.00;;;;;;4991267;28;20908;-59
2022/12/15 08:27:49;;;;;;;26.20;15.60;;;-3.00;1.00;;;;;;4991094;28;20526;-58
2022/12/15 08:30:15;;;;;;;26.23;15.47;;;-2.90;1.00;;;;;;4989943;28;20213;-58
2022/12/15 08:32:41;;;;;;;26.87;15.57;;;-2.90;1.00;;;;;;4990173;28;20482;-58
2022/12/15 08:35:06;;;;;;;28.17;14.87;;;-2.80;1.00;;;;;;4990770;28;20184;-59
2022/12/15 08:37:33;;;;;;;25.33;14.00;;;-2.80;1.00;;;;;;4990715;28;20223;-60
2022/12/15 08:39:59;;;;;;;27.90;15.67;;;-1.80;1.00;;;;;;4990820;28;20613;-59
2022/12/15 08:42:24;;;;;;;27.10;15.90;;;-2.90;1.00;;;;;;4990675;28;20454;-58
2022/12/15 08:44:50;;;;;;;26.17;15.50;;;-2.90;1.00;;;;;;4990266;28;20180;-59
2022/12/15 08:47:16;;;;;;;32.57;17.13;;;-3.00;1.00;;;;;;4988193;28;20214;-61
2022/12/15 08:49:42;;;;;;;26.97;16.50;;;-3.00;1.00;;;;;;4990948;28;20434;-59
2022/12/15 08:52:07;;;;;;;32.20;16.70;;;-3.00;1.00;;;;;;4990552;28;20241;-58
2022/12/15 08:54:33;;;;;;;30.20;14.57;;;-2.90;1.00;;;;;;4990476;28;20654;-58
2022/12/15 08:56:59;;;;;;;26.37;16.17;;;-2.90;1.00;;;;;;4990586;28;20214;-58
2022/12/15 08:59:24;;;;;;;25.80;15.87;;;-2.90;1.00;;;;;;4990370;28;20283;-59
2022/12/15 09:01:50;;;;;;;31.43;16.20;;;-2.80;1.00;;;;;;4989229;28;20215;-59
2022/12/15 09:04:16;;;;;;;30.43;17.50;;;-2.80;1.00;;;;;;4990413;28;20614;-57
2022/12/15 09:06:42;;;;;;;25.73;14.90;;;-2.80;1.00;;;;;;4990481;28;20208;-58
2022/12/15 09:09:11;;;;;;;29.83;16.10;;;-2.70;1.00;;;;;;4990347;28;20450;-59
2022/12/15 09:11:36;;;;;;;26.83;17.80;;;-2.60;1.00;;;;;;4990499;28;20501;-59
2022/12/15 09:14:02;;;;;;;30.53;19.07;;;-2.60;1.00;;;;;;4990561;28;20435;-59
2022/12/15 09:16:29;;;;;;;29.07;17.80;;;-2.40;1.00;;;;;;4987805;28;20252;-59
2022/12/15 09:18:57;;;;;;;32.20;19.10;;;-2.40;1.00;;;;;;5006954;28;20276;-59
2022/12/15 09:21:25;;;;;;;28.73;16.80;;;-2.40;1.00;;;;;;5005732;28;20951;-61
2022/12/15 09:23:53;;;;;;;29.23;16.17;;;-2.50;1.00;;;;;;4988957;28;20511;-60
2022/12/15 09:26:21;;;;;;;33.03;18.13;;;-2.20;1.00;;;;;;4990300;28;20444;-58
2022/12/15 09:28:47;;;;;;;32.80;17.50;;;-2.10;1.00;;;;;;4989973;28;20451;-58
2022/12/15 09:31:16;;;;;;;29.93;16.70;;;-2.10;1.00;;;;;;4994338;28;20931;-59
2022/12/15 09:33:42;;;;;;;30.80;18.57;;;-2.10;1.00;;;;;;5009802;28;20441;-58
2022/12/15 09:36:11;;;;;;;27.87;16.90;;;-2.10;1.00;;;;;;5009844;28;20489;-59
2022/12/15 09:38:39;;;;;;;28.60;16.80;;;-2.10;1.00;;;;;;5009775;28;20512;-59
2022/12/15 09:41:14;;;;;;;27.17;16.43;;;-2.10;1.00;;;;;;4991854;28;20450;-58
2022/12/15 09:44:03;;;;;;;27.13;15.90;;;-2.10;1.00;;;;;;5009626;28;20977;-59
2022/12/15 09:46:47;;;;;;;27.40;17.47;;;-2.00;1.00;;;;;;4985498;28;20533;-59
2022/12/15 09:49:40;;;;;;;27.30;17.37;;;-2.00;1.00;;;;;;4989693;28;20518;-59
2022/12/15 09:52:14;;;;;;;30.00;17.47;;;-1.90;1.00;;;;;;4989982;28;20473;-59
2022/12/15 09:54:42;;;;;;;29.30;16.87;;;-1.90;1.00;;;;;;4989938;28;20920;-59
2022/12/15 09:57:18;;;;;;;28.63;16.33;;;-1.90;1.00;;;;;;4990106;28;20448;-59
2022/12/15 10:00:06;;;;;;;29.33;17.43;;;-1.80;1.00;;;;;;4986834;28;20457;-58
2022/12/15 10:03:09;;;;;;;23.10;16.57;;;-1.80;1.00;;;;;;4989591;28;20446;-58
2022/12/15 10:05:59;;;;;;;35.63;18.57;;;-1.80;1.00;;;;;;4890962;29;21039;-59
2022/12/15 10:08:30;;;;;;;26.80;17.30;;;-1.80;1.00;;;;;;4986214;28;20435;-61
2022/12/15 10:11:02;;;;;;;28.00;17.03;;;-0.90;1.00;;;;;;4992633;28;20467;-59
2022/12/15 10:13:53;;;;;;;32.33;19.30;;;-1.60;1.00;;;;;;4993820;28;20466;-58
2022/12/15 10:16:57;;;;;;;33.17;18.93;;;-1.40;1.00;;;;;;4993688;28;20527;-60
2022/12/15 10:19:41;;;;;;;24.07;15.63;;;-1.00;1.00;;;;;;4963920;28;20447;-59
2022/12/15 10:22:20;;;;;;;29.60;16.77;;;-0.70;1.00;;;;;;4992682;28;20452;-58
2022/12/15 10:24:46;;;;;;;27.80;16.70;;;-0.60;1.00;;;;;;4993196;28;20475;-59
2022/12/15 10:27:30;;;;;;;28.13;16.67;;;-0.40;1.00;;;;;;4993215;28;20535;-59
2022/12/15 10:30:04;;;;;;;29.20;16.20;;;-0.20;1.00;;;;;;4991225;28;20660;-60
2022/12/15 10:32:49;;;;;;;29.37;16.40;;;-0.10;1.00;;;;;;4993220;28;20506;-60
2022/12/15 10:35:26;;;;;;;25.17;15.87;;;-0.10;1.00;;;;;;4993010;28;20450;-60
2022/12/15 10:38:00;;;;;;;28.40;16.47;;;0.00;1.00;;;;;;4992892;28;20447;-59
2022/12/15 10:40:44;;;;;;;27.27;16.70;;;0.00;1.00;;;;;;4976759;28;20469;-59
2022/12/15 10:43:22;;;;;;;29.50;17.20;;;0.10;1.00;;;;;;5012042;28;20427;-58
2022/12/15 10:45:49;;;;;;;26.90;17.77;;;0.00;1.00;;;;;;4997436;28;20703;-58
2022/12/15 10:48:19;;;;;;;27.47;17.10;;;0.10;1.00;;;;;;4991891;28;20486;-60
2022/12/15 10:50:46;;;;;;;23.30;15.60;;;0.30;1.00;;;;;;4992467;28;20445;-59
2022/12/15 10:53:35;;;;;;;26.50;15.67;;;0.10;1.00;;;;;;4992799;28;20435;-60
2022/12/15 10:56:00;;;;;;;28.80;16.33;;;0.40;1.00;;;;;;4990481;28;20427;-60
2022/12/15 10:58:26;;;;;;;26.00;16.63;;;0.30;1.00;;;;;;4992460;28;20443;-60
2022/12/15 11:01:14;;;;;;;24.87;15.70;;;0.30;1.00;;;;;;4991178;28;20467;-59
2022/12/15 11:03:39;;;;;;;21.57;14.60;;;0.40;1.00;;;;;;4992041;28;20279;-60
2022/12/15 11:06:14;;;;;;;29.33;16.40;;;0.60;1.00;;;;;;5009155;28;20522;-59
2022/12/15 11:08:42;;;;;;;25.37;16.20;;;0.70;1.00;;;;;;5012007;28;20210;-59
2022/12/15 11:14:13;;;;;;;24.97;16.17;;;0.80;1.00;;;;;;4991596;28;20953;-59
2022/12/15 11:17:05;;;;;;;26.00;16.30;;;0.80;1.00;;;;;;4992537;28;20957;-59
2022/12/15 11:19:59;;;;;;;24.10;15.07;;;0.70;1.00;;;;;;4968690;28;20451;-60
2022/12/15 11:22:41;;;;;;;29.50;16.67;;;0.70;1.00;;;;;;4991650;28;20456;-60
2022/12/15 11:25:24;;;;;;;27.93;17.80;;;0.80;1.00;;;;;;4991841;28;20447;-59
2022/12/15 11:27:55;;;;;;;27.10;16.57;;;0.70;1.00;;;;;;4992094;28;20510;-59
2022/12/15 11:30:25;;;;;;;26.30;17.47;;;0.70;1.00;;;;;;4990976;28;20451;-60
2022/12/15 11:32:57;;;;;;;23.87;15.77;;;0.80;1.00;;;;;;4992087;28;20514;-60
2022/12/15 11:35:28;;;;;;;25.20;16.63;;;0.80;1.00;;;;;;4991544;28;20439;-60
2022/12/15 11:38:15;;;;;;;30.73;18.20;;;0.90;1.00;;;;;;4974303;28;20444;-59
2022/12/15 11:40:42;;;;;;;28.30;17.83;;;0.90;1.00;;;;;;4991842;28;20466;-59
2022/12/15 11:43:13;;;;;;;26.53;18.27;;;1.10;1.00;;;;;;4990183;28;20533;-60
2022/12/15 11:46:00;;;;;;;27.60;18.00;;;1.10;1.00;;;;;;4974035;28;20775;-59
2022/12/15 11:49:05;;;;;;;31.27;20.00;;;1.10;1.00;;;;;;4991604;28;20509;-60
2022/12/15 11:51:49;;;;;;;27.20;17.90;;;1.00;1.00;;;;;;4991604;28;20467;-59
2022/12/15 11:54:22;;;;;;;27.20;18.70;;;1.10;1.00;;;;;;4991586;28;20497;-60
2022/12/15 11:56:51;;;;;;;29.17;18.80;;;1.20;1.00;;;;;;4991235;28;20944;-60
2022/12/15 11:59:45;;;;;;;34.90;19.13;;;1.10;1.00;;;;;;4990930;28;20498;-59
2022/12/15 12:02:36;;;;;;;28.70;19.87;;;1.10;1.00;;;;;;4989851;28;20702;-60
2022/12/15 12:05:20;;;;;;;33.43;19.27;;;1.20;1.00;;;;;;4991138;28;20915;-60
2022/12/15 12:07:49;;;;;;;30.43;18.10;;;1.30;1.00;;;;;;4991238;28;20418;-59
2022/12/15 12:10:27;;;;;;;29.87;17.50;;;1.30;1.00;;;;;;4991132;28;20448;-58
2022/12/15 12:12:55;;;;;;;30.77;18.90;;;1.30;1.00;;;;;;4973629;28;20526;-60
2022/12/15 12:16:03;;;;;;;28.67;17.80;;;1.40;1.00;;;;;;4990983;28;21379;-60
2022/12/15 12:18:45;;;;;;;26.70;17.40;;;1.40;1.00;;;;;;4978768;28;20526;-59
2022/12/15 12:21:17;;;;;;;29.03;18.80;;;1.00;1.00;;;;;;4990977;28;20929;-59
2022/12/15 12:24:09;;;;;;;28.97;18.60;;;0.90;1.00;;;;;;4991119;28;20522;-59
2022/12/15 12:26:45;;;;;;;31.47;19.63;;;0.70;1.00;;;;;;4990831;28;20494;-59
2022/12/15 12:29:19;;;;;;;26.43;16.57;;;0.60;1.00;;;;;;4990982;28;20479;-60
2022/12/15 12:31:57;;;;;;;28.83;17.20;;;0.60;1.00;;;;;;4989791;28;20474;-59
2022/12/15 12:34:54;;;;;;;27.27;15.37;;;0.50;1.00;;;;;;4990601;28;20946;-59
2022/12/15 12:37:40;;;;;;;26.87;16.27;;;0.50;1.00;;;;;;4983743;28;20901;-59
2022/12/15 12:40:33;;;;;;;25.07;16.27;;;0.80;1.00;;;;;;4989981;28;20535;-59
2022/12/15 12:42:59;;;;;;;28.47;17.80;;;0.80;1.00;;;;;;4990760;28;20444;-59
2022/12/15 12:45:39;;;;;;;29.53;16.60;;;0.90;1.00;;;;;;4990748;28;20450;-60
2022/12/15 12:48:29;;;;;;;22.93;16.33;;;0.90;1.00;;;;;;4990613;28;20486;-59
2022/12/15 12:51:19;;;;;;;24.47;15.77;;;1.00;1.00;;;;;;4988470;28;20458;-59
2022/12/15 12:53:45;;;;;;;25.70;15.97;;;0.90;1.00;;;;;;4989946;28;20892;-58
2022/12/15 12:56:34;;;;;;;31.60;16.97;;;0.90;1.00;;;;;;4989888;28;20447;-59
2022/12/15 12:59:00;;;;;;;26.30;16.33;;;0.80;1.00;;;;;;4990691;28;20973;-60
2022/12/15 13:01:34;;;;;;;25.77;17.80;;;0.70;1.00;;;;;;4990456;28;20450;-60
2022/12/15 13:04:10;;;;;;;32.40;20.20;;;0.70;1.00;;;;;;4988171;28;20454;-61
2022/12/15 13:06:39;;;;;;;30.00;18.50;;;0.70;1.00;;;;;;4990143;28;20444;-59
2022/12/15 13:09:17;;;;;;;30.30;17.77;;;0.80;1.00;;;;;;4990121;28;20454;-58
2022/12/15 13:11:46;;;;;;;27.90;16.80;;;0.80;1.00;;;;;;5002517;28;21189;-60
2022/12/15 13:14:33;;;;;;;28.20;17.53;;;0.70;1.00;;;;;;5010060;28;20439;-59
2022/12/15 13:17:10;;;;;;;30.20;17.30;;;0.80;1.00;;;;;;5009279;28;21164;-60
2022/12/15 13:19:57;;;;;;;27.83;15.93;;;0.70;1.00;;;;;;5008538;28;20412;-58
2022/12/15 13:22:39;;;;;;;24.93;15.87;;;0.80;1.00;;;;;;4990051;28;20440;-59
2022/12/15 13:25:34;;;;;;;27.03;17.43;;;0.90;1.00;;;;;;4987980;28;20530;-61
2022/12/15 13:28:16;;;;;;;30.47;19.13;;;0.90;1.00;;;;;;4994574;28;20438;-60
2022/12/15 13:31:15;;;;;;;29.47;18.40;;;0.90;1.00;;;;;;5001730;28;20933;-60
2022/12/15 13:33:49;;;;;;;28.57;18.37;;;-0.40;1.00;;;;;;4990322;28;20434;-60
2022/12/15 13:36:40;;;;;;;24.70;17.27;;;0.90;1.00;;;;;;4988657;28;20500;-59
2022/12/15 13:39:12;;;;;;;27.37;18.07;;;0.80;1.00;;;;;;4989849;28;20439;-59
2022/12/15 13:41:53;;;;;;;30.30;17.77;;;0.80;1.00;;;;;;4989832;28;20435;-59
2022/12/15 13:44:29;;;;;;;24.93;16.53;;;0.80;1.00;;;;;;4990062;28;20518;-59
2022/12/15 13:47:03;;;;;;;27.30;16.13;;;0.80;1.00;;;;;;4993997;28;20437;-60
2022/12/15 13:49:37;;;;;;;29.30;17.60;;;0.70;1.00;;;;;;4993562;28;20458;-60
2022/12/15 13:52:11;;;;;;;29.00;17.00;;;0.70;1.00;;;;;;4993337;28;21052;-59
2022/12/15 13:54:45;;;;;;;27.60;17.27;;;0.80;1.00;;;;;;4993789;28;20704;-59
2022/12/15 13:57:19;;;;;;;27.27;17.63;;;0.70;1.00;;;;;;4993486;28;20444;-58
2022/12/15 13:59:55;;;;;;;28.20;18.67;;;0.80;1.00;;;;;;4993747;28;20489;-60
2022/12/15 14:02:33;;;;;;;29.33;18.23;;;0.70;1.00;;;;;;4993945;28;20446;-58
2022/12/15 14:05:16;;;;;;;37.97;20.60;;;0.60;1.00;;;;;;4991919;28;20963;-60
2022/12/15 14:07:47;;;;;;;30.33;19.10;;;0.50;1.00;;;;;;5009149;28;20408;-59
2022/12/15 14:10:28;;;;;;;36.13;21.53;;;0.50;1.00;;;;;;5007010;28;20467;-59
2022/12/15 14:13:03;;;;;;;34.33;20.37;;;0.50;1.00;;;;;;4993577;28;21056;-59
2022/12/15 14:15:31;;;;;;;33.70;21.93;;;0.50;1.00;;;;;;4993439;28;20434;-60
2022/12/15 14:17:59;;;;;;;35.77;20.87;;;0.40;1.00;;;;;;4993251;28;20445;-59
2022/12/15 14:20:28;;;;;;;34.87;20.33;;;0.40;1.00;;;;;;4992571;28;20447;-60
2022/12/15 14:22:54;;;;;;;31.93;19.47;;;0.40;1.00;;;;;;4993119;28;20451;-59
2022/12/15 14:25:22;;;;;;;32.17;20.30;;;0.40;1.00;;;;;;4993330;28;20435;-59
2022/12/15 14:27:48;;;;;;;35.77;20.73;;;0.30;1.00;;;;;;4993543;28;20581;-59
2022/12/15 14:30:42;;;;;;;41.67;23.10;;;0.30;1.00;;;;;;4993247;28;20439;-59
2022/12/15 14:33:14;;;;;;;34.00;19.80;;;0.20;1.00;;;;;;4971743;28;20486;-59
2022/12/15 14:35:44;;;;;;;33.67;19.27;;;0.10;1.00;;;;;;4992616;28;20456;-60
2022/12/15 14:38:51;;;;;;;32.53;19.87;;;0.00;1.00;;;;;;4993024;28;20856;-60
2022/12/15 14:41:38;;;;;;;35.63;21.43;;;0.00;1.00;;;;;;4894548;29;20451;-59
2022/12/15 14:44:14;;;;;;;35.10;21.73;;;-0.10;1.00;;;;;;4991189;28;20476;-59
2022/12/15 14:46:46;;;;;;;35.17;20.87;;;-0.10;1.00;;;;;;4991739;28;21154;-58
2022/12/15 14:49:24;;;;;;;37.33;23.10;;;-0.20;1.00;;;;;;4992315;28;20475;-59
2022/12/15 14:51:55;;;;;;;39.80;21.20;;;-0.20;1.00;;;;;;4992622;28;20479;-60
2022/12/15 14:55:10;;;;;;;38.83;21.10;;;-0.20;1.00;;;;;;4992636;28;20505;-59
2022/12/15 14:57:41;;;;;;;30.13;20.07;;;-0.40;1.00;;;;;;4989508;28;20863;-60
2022/12/15 15:00:24;;;;;;;34.77;22.40;;;-0.30;1.00;;;;;;4992598;28;20441;-59
2022/12/15 15:03:13;;;;;;;42.60;24.77;;;-0.40;1.00;;;;;;4990069;28;20892;-60
2022/12/15 15:05:54;;;;;;;43.10;24.17;;;-0.40;1.00;;;;;;4992476;28;20443;-59
2022/12/15 15:08:51;;;;;;;42.80;24.83;;;-0.50;1.00;;;;;;4992655;28;20449;-58
2022/12/15 15:11:34;;;;;;;47.60;29.63;;;-0.60;1.00;;;;;;4992483;28;20504;-59
2022/12/15 15:14:23;;;;;;;46.40;25.60;;;-0.70;1.00;;;;;;4992829;28;20440;-60
2022/12/15 15:17:06;;;;;;;46.27;24.97;;;-0.60;1.00;;;;;;4991885;28;20435;-58
2022/12/15 15:19:32;;;;;;;39.63;24.57;;;0.00;1.00;;;;;;4992627;28;20439;-59
2022/12/15 15:22:00;;;;;;;40.20;24.87;;;-0.70;1.00;;;;;;4992056;28;20462;-59
2022/12/15 15:24:33;;;;;;;45.57;24.13;;;-0.70;1.00;;;;;;4992334;28;20443;-60
2022/12/15 15:27:24;;;;;;;42.83;23.70;;;-0.70;1.00;;;;;;4992226;28;20435;-58
2022/12/15 15:29:50;;;;;;;46.17;25.57;;;-0.80;1.00;;;;;;4992431;28;20551;-62
2022/12/15 15:32:19;;;;;;;43.80;26.80;;;-0.80;1.00;;;;;;4990142;28;21000;-59